Flight Track Log - Related Links

Times and Time Zones

All times are in EDT time to prevent confusion due to time zone crossing. See the SWA2502 flight status page for this flight to view local times or setup timezone preferences in your user account.

Time Position Orientation Groundspeed Altitude Reporting Facility
EDT Latitude Longitude Course Direction KTS MPH feet Rate Location/Type
Fri 04:11:07 PM 33.9500 -118.4833 North 186 214 2,600  Level Southern California TRACON
Fri 04:11:25 PM 33.9419 -118.5106 250° West 187 215 3,100 2,148 Climbing Los Angeles Center
Fri 04:12:28 PM 33.9375 -118.5969 266° West 241 277 5,500 2,544 Climbing Los Angeles Center
Fri 04:13:30 PM 33.9678 -118.6747 295° West 274 315 8,400 1,694 Climbing Los Angeles Center
Fri 04:14:32 PM 34.0439 -118.7069 341° North 283 326 9,000 794 Climbing Los Angeles Center
Fri 04:15:46 PM 34.1019 -118.6647 31° Northeast 262 302 10,200 1,985 Climbing Los Angeles Center
Fri 04:16:00 PM 34.2412 -118.6000 North  Level FlightAware Approximate
Fri 04:16:48 PM 34.1903 -118.6742 355° North 266 306 13,500  Level Los Angeles Center
Fri 04:17:51 PM 34.2742 -118.6858 353° North 300 345 15,700 2,448 Climbing Los Angeles Center
Fri 04:18:53 PM 34.3864 -118.7039 352° North 336 387 18,600 2,419 Climbing Los Angeles Center
Fri 04:19:55 PM 34.4839 -118.7183 353° North 352 405 20,700 2,081 Climbing Los Angeles Center
Fri 04:20:57 PM 34.5836 -118.7486 346° North 371 427 22,900 2,226 Climbing Los Angeles Center
Fri 04:21:59 PM 34.6783 -118.8006 336° Northwest 373 429 25,300 1,839 Climbing Los Angeles Center
Fri 04:23:01 PM 34.7561 -118.8383 338° Northwest 377 434 26,700 1,403 Climbing Los Angeles Center
Fri 04:24:03 PM 34.8761 -118.8947 339° North 387 445 28,200 1,887 Climbing Los Angeles Center
Fri 04:25:05 PM 35.0047 -118.9522 340° North 404 465 30,600 2,274 Climbing Los Angeles Center
Fri 04:26:07 PM 35.1042 -118.9967 340° North 388 447 32,900 1,584 Climbing Los Angeles Center
Fri 04:27:10 PM 35.2017 -119.0403 340° North 378 435 33,900 701 Climbing Los Angeles Center
Fri 04:28:24 PM 35.2997 -119.0842 340° North 376 433 34,500 730 Climbing Los Angeles Center
Fri 04:29:38 PM 35.4172 -119.1367 340° North 376 433 35,700 657 Climbing Los Angeles Center
Fri 04:30:41 PM 35.5508 -119.1992 339° North 369 425 36,000 144 Climbing Los Angeles Center
Fri 04:31:43 PM 35.6489 -119.2428 340° North 375 432 36,000  Level Los Angeles Center
Fri 04:32:28 PM 35.7275 -119.2781 340° North 378 435 36,000  Level Oakland Center
Fri 04:33:29 PM 35.8269 -119.3239 340° North 382 440 36,000  Level Oakland Center
Fri 04:34:31 PM 35.9267 -119.3706 339° North 384 442 36,000  Level Oakland Center
Fri 04:35:33 PM 36.0200 -119.4239 335° Northwest 374 430 36,000  Level Oakland Center
Fri 04:36:34 PM 36.1131 -119.4833 333° Northwest 377 434 36,000  Level Oakland Center
Fri 04:37:36 PM 36.2061 -119.5442 332° Northwest 379 436 36,000  Level Oakland Center
Fri 04:38:37 PM 36.2981 -119.6039 332° Northwest 376 433 36,000 -115 Level Oakland Center
Fri 04:40:12 PM 36.4450 -119.7044 331° Northwest 374 430 35,700 -435 Descending Los Angeles Center
Fri 04:40:41 PM 36.4997 -119.7361 335° Northwest 375 432 35,100 -1,000 Descending Oakland Center
Fri 04:41:42 PM 36.5919 -119.7981 332° Northwest 377 434 34,200 -927 Descending Oakland Center
Fri 04:42:44 PM 36.6869 -119.8611 332° Northwest 386 444 33,200 -927 Descending Oakland Center
Fri 04:43:45 PM 36.7822 -119.9242 332° Northwest 389 448 32,300 -878 Descending Oakland Center
Fri 04:44:47 PM 36.8781 -119.9875 332° Northwest 390 449 31,400 -927 Descending Oakland Center
Fri 04:45:48 PM 36.9750 -120.0525 332° Northwest 397 457 30,400 -1,024 Descending Oakland Center
Fri 04:46:50 PM 37.0908 -120.1308 332° Northwest 402 463 29,300 -1,016 Descending Oakland Center
Fri 04:47:52 PM 37.1925 -120.1989 332° Northwest 402 463 28,300 -1,073 Descending Oakland Center
Fri 04:48:53 PM 37.2881 -120.2622 332° Northwest 388 447 27,100 -1,512 Descending Oakland Center
Fri 04:49:55 PM 37.3767 -120.3194 333° Northwest 360 414 25,200 -1,805 Descending Oakland Center
Fri 04:50:56 PM 37.4614 -120.3850 328° Northwest 357 411 23,400 -1,714 Descending Oakland Center
Fri 04:51:26 PM 37.5000 -120.4333 315° West 364 419 22,600 -1,253 Descending Northern Cal TRACON
Fri 04:52:27 PM 37.5833 -120.5167 322° Northwest 369 425 21,500 -1,140 Descending Northern Cal TRACON
Fri 04:53:27 PM 37.6667 -120.6000 322° Northwest 370 426 20,300 -1,085 Descending Northern Cal TRACON
Fri 04:54:01 PM 37.7019 -120.6264 329° Northwest 369 425 19,800 -1,200 Descending Oakland Center
Fri 04:54:27 PM 37.7500 -120.6667 326° Northwest 365 420 19,100 -1,395 Descending Northern Cal TRACON
Fri 04:55:27 PM 37.8333 -120.7500 322° Northwest 354 407 17,800 -1,100 Descending Northern Cal TRACON
Fri 04:56:27 PM 37.8833 -120.8333 307° West 348 400 16,900 -1,041 Descending Northern Cal TRACON
Fri 04:57:05 PM 37.9350 -120.8925 318° Northwest 345 397 16,100 -1,200 Descending Oakland Center
Fri 04:58:07 PM 38.0022 -120.9797 314° West 346 398 14,900 -1,122 Descending Oakland Center
Fri 04:59:08 PM 38.0700 -121.0667 315° West 345 397 13,800 -1,122 Descending Oakland Center
Fri 05:00:10 PM 38.1369 -121.1519 315° West 341 392 12,600 -1,214 Descending Oakland Center
Fri 05:00:32 PM 38.1667 -121.2000 308° West 345 397 12,100 -1,390 Descending Northern Cal TRACON
Fri 05:01:32 PM 38.2333 -121.2833 316° Northwest 332 382 10,700 -1,100 Descending Northern Cal TRACON
Fri 05:02:32 PM 38.3000 -121.3500 322° Northwest 305 351 9,900 -400 Descending Northern Cal TRACON
Fri 05:03:32 PM 38.3500 -121.4333 307° West 292 336 9,900 -694 Level Northern Cal TRACON
Fri 05:04:33 PM 38.4000 -121.5000 314° West 283 326 8,500 -1,438 Descending Northern Cal TRACON
Fri 05:05:33 PM 38.4667 -121.5667 322° Northwest 271 312 7,000 -1,400 Descending Northern Cal TRACON
Fri 05:06:33 PM 38.5167 -121.6167 322° Northwest 263 303 5,700 -1,178 Descending Northern Cal TRACON
Fri 05:07:20 PM 38.5619 -121.6422 336° Northwest 262 302 4,900 -1,333 Descending Oakland Center
Fri 05:08:21 PM 38.6347 -121.6967 330° Northwest 254 292 3,300 -927 Descending Oakland Center
Fri 05:09:23 PM 38.7008 -121.7017 357° North 237 273 3,000 -146 Descending Oakland Center
Fri 05:10:24 PM 38.7603 -121.7056 357° North 221 254 3,000 -390 Level Oakland Center
Fri 05:11:26 PM 38.7733 -121.6481 74° East 191 220 2,200 -927 Descending Oakland Center
Fri 05:12:27 PM 38.7569 -121.6033 115° Southeast 165 190 1,100 -878 Descending Oakland Center
Fri 05:13:29 PM 38.7194 -121.6017 178° South 148 170 400 -677 Descending Oakland Center

Login

Don't have an account? Register now (free) for customized features, flight alerts, and more!